Time;durP1;ratioP1;P1;durP2;ratioP2;P2;SDS_P1;SDS_P2;PMS_P1;PMS_P2;Temp;Humidity;BMP_temperature;BMP_pressure;BME280_temperature;BME280_humidity;BME280_pressure;Samples;Min_cycle;Max_cycle;Signal;HPM_P1;HPM_P2
2022/06/30 00:00:42;;;;;;;5.57;5.07;;;18.90;99.90;;;;;;4997846;28;20061;-83
2022/06/30 00:03:08;;;;;;;5.20;4.32;;;19.00;99.90;;;;;;4997277;28;20033;-85
2022/06/30 00:05:34;;;;;;;5.40;4.90;;;19.00;99.90;;;;;;4996622;28;20030;-85
2022/06/30 00:07:59;;;;;;;5.35;4.65;;;19.00;99.90;;;;;;4997948;28;20033;-85
2022/06/30 00:10:25;;;;;;;5.20;4.78;;;18.90;99.90;;;;;;5016171;28;20034;-85
2022/06/30 00:12:51;;;;;;;4.85;4.40;;;18.90;99.90;;;;;;4999078;28;20056;-86
2022/06/30 00:15:17;;;;;;;6.00;4.78;;;18.90;99.90;;;;;;4997434;28;20483;-85
2022/06/30 00:17:44;;;;;;;4.80;4.40;;;18.90;99.90;;;;;;5016202;28;20040;-85
2022/06/30 00:20:10;;;;;;;4.80;4.40;;;18.80;99.90;;;;;;4996753;28;20044;-85
2022/06/30 00:22:36;;;;;;;5.18;4.75;;;18.80;99.90;;;;;;5001346;28;20038;-86
2022/06/30 00:25:02;;;;;;;5.13;4.72;;;18.80;99.90;;;;;;5018358;28;20073;-86
2022/06/30 00:27:28;;;;;;;5.53;5.03;;;18.70;99.90;;;;;;5019885;28;20045;-85
2022/06/30 00:29:53;;;;;;;4.78;4.35;;;18.70;99.90;;;;;;5018601;28;20041;-85
2022/06/30 00:32:19;;;;;;;4.72;4.30;;;18.70;99.90;;;;;;5020287;28;20018;-86
2022/06/30 00:34:45;;;;;;;4.55;4.10;;;18.70;99.90;;;;;;5019396;28;20045;-85
2022/06/30 00:37:10;;;;;;;5.00;4.60;;;18.70;99.90;;;;;;5020121;28;20054;-85
2022/06/30 00:39:36;;;;;;;4.90;4.47;;;18.70;99.90;;;;;;5020568;28;20391;-85
2022/06/30 00:42:04;;;;;;;4.97;4.47;;;18.60;99.90;;;;;;5020629;28;20032;-84
2022/06/30 00:44:30;;;;;;;5.35;4.82;;;18.60;99.90;;;;;;5019313;28;20022;-85
2022/06/30 00:46:56;;;;;;;6.15;4.90;;;18.70;99.90;;;;;;5019644;28;20394;-85
2022/06/30 00:49:23;;;;;;;5.00;4.60;;;18.60;99.90;;;;;;5002851;28;20104;-85
2022/06/30 00:51:48;;;;;;;4.82;4.43;;;18.60;99.90;;;;;;5019733;28;20104;-85
2022/06/30 00:54:15;;;;;;;4.88;4.47;;;18.50;99.90;;;;;;5019545;28;20068;-84
2022/06/30 00:56:45;;;;;;;4.88;4.40;;;18.50;99.90;;;;;;5019188;28;20033;-84
2022/06/30 00:59:14;;;;;;;5.50;5.00;;;18.50;99.90;;;;;;5019532;28;20065;-86
2022/06/30 01:01:42;;;;;;;5.97;4.90;;;18.40;99.90;;;;;;5018712;28;20040;-83
2022/06/30 01:04:08;;;;;;;5.07;4.38;;;18.40;99.90;;;;;;5017610;28;20022;-83
2022/06/30 01:06:35;;;;;;;5.10;4.60;;;18.40;99.90;;;;;;5006483;28;20053;-84
2022/06/30 01:09:00;;;;;;;4.38;4.07;;;18.40;99.90;;;;;;5020214;28;20386;-86
2022/06/30 01:14:10;;;;;;;4.57;4.28;;;18.30;99.90;;;;;;5019770;28;20056;-85
2022/06/30 01:16:42;;;;;;;5.68;5.18;;;18.30;99.90;;;;;;5018674;28;20034;-85
2022/06/30 01:19:08;;;;;;;4.65;4.25;;;18.20;99.90;;;;;;5018796;28;20030;-85
2022/06/30 01:21:34;;;;;;;4.30;4.00;;;18.20;99.90;;;;;;5019566;28;20036;-85
2022/06/30 01:23:59;;;;;;;5.10;4.63;;;18.20;99.90;;;;;;5018877;28;20479;-86
2022/06/30 01:26:27;;;;;;;5.10;4.32;;;18.20;99.90;;;;;;5004085;28;20073;-86
2022/06/30 01:28:53;;;;;;;4.53;4.13;;;18.20;99.90;;;;;;5033860;28;20010;-83
2022/06/30 01:31:18;;;;;;;6.10;5.32;;;18.20;99.90;;;;;;5032351;28;20080;-84
2022/06/30 01:33:45;;;;;;;6.35;4.18;;;18.20;99.90;;;;;;5019759;28;20471;-85
2022/06/30 01:36:10;;;;;;;4.63;4.30;;;18.20;99.90;;;;;;5019528;28;20026;-86
2022/06/30 01:38:36;;;;;;;5.20;4.40;;;18.20;99.90;;;;;;5004817;28;20103;-84
2022/06/30 01:41:02;;;;;;;5.00;4.38;;;18.20;99.90;;;;;;5027552;28;20041;-83
2022/06/30 01:43:28;;;;;;;4.80;4.40;;;18.20;99.90;;;;;;5029470;28;20049;-85
2022/06/30 01:45:53;;;;;;;4.68;4.28;;;18.20;99.90;;;;;;5016845;28;20065;-82
2022/06/30 01:48:19;;;;;;;4.25;3.88;;;18.10;99.90;;;;;;5030670;28;20080;-84
2022/06/30 01:50:45;;;;;;;4.88;4.47;;;18.10;99.90;;;;;;5025195;28;20029;-84
2022/06/30 01:53:11;;;;;;;4.57;4.18;;;18.10;99.90;;;;;;5021879;28;20471;-83
2022/06/30 01:55:37;;;;;;;4.53;4.18;;;18.00;99.90;;;;;;5001220;28;20064;-84
2022/06/30 01:58:03;;;;;;;6.72;4.95;;;18.00;99.90;;;;;;5018068;28;20498;-86
2022/06/30 02:00:29;;;;;;;6.50;4.65;;;18.00;99.90;;;;;;5017876;28;20030;-85
2022/06/30 02:02:56;;;;;;;4.40;4.05;;;18.00;99.90;;;;;;5017241;28;20037;-84
2022/06/30 02:05:22;;;;;;;4.47;4.10;;;17.90;99.90;;;;;;5018565;28;20026;-84
2022/06/30 02:07:48;;;;;;;4.60;4.30;;;18.00;99.90;;;;;;5017610;28;20022;-85
2022/06/30 02:10:18;;;;;;;4.90;4.50;;;17.90;99.90;;;;;;5016995;28;20131;-85
2022/06/30 02:12:46;;;;;;;5.07;4.68;;;17.90;99.90;;;;;;5018397;28;20065;-84
2022/06/30 02:15:12;;;;;;;4.65;3.97;;;17.80;99.90;;;;;;5017888;28;20478;-85
2022/06/30 02:17:39;;;;;;;3.90;3.60;;;17.80;99.90;;;;;;5017200;28;20026;-85
2022/06/30 02:20:07;;;;;;;5.63;4.30;;;17.80;99.90;;;;;;4999160;28;20112;-84
2022/06/30 02:22:34;;;;;;;4.32;4.00;;;17.80;99.90;;;;;;5017882;28;20106;-85
2022/06/30 02:25:00;;;;;;;4.50;4.18;;;17.80;99.90;;;;;;5017415;28;20036;-85
2022/06/30 02:27:25;;;;;;;4.50;4.10;;;17.80;99.90;;;;;;5018419;28;20022;-84
2022/06/30 02:29:51;;;;;;;4.25;3.80;;;17.80;99.90;;;;;;5007881;28;20030;-85
2022/06/30 02:32:18;;;;;;;4.10;3.80;;;17.80;99.90;;;;;;5034972;28;20010;-85
2022/06/30 02:34:44;;;;;;;4.72;4.00;;;17.80;99.90;;;;;;4999400;28;20486;-84
2022/06/30 02:37:10;;;;;;;4.68;4.30;;;17.80;99.90;;;;;;5017102;28;20033;-85
2022/06/30 02:39:36;;;;;;;4.32;3.92;;;17.80;99.90;;;;;;5015416;28;20034;-84
2022/06/30 02:42:01;;;;;;;3.63;3.38;;;17.80;99.90;;;;;;5017713;28;20066;-85
2022/06/30 02:44:27;;;;;;;4.72;4.10;;;17.80;99.90;;;;;;5016319;28;20022;-84
2022/06/30 02:46:54;;;;;;;4.28;3.70;;;17.80;99.90;;;;;;5016752;28;20049;-85
2022/06/30 02:49:21;;;;;;;5.63;3.65;;;17.80;99.90;;;;;;5016962;28;20029;-85
2022/06/30 02:51:47;;;;;;;3.67;3.38;;;17.80;99.90;;;;;;5012921;28;20498;-85
2022/06/30 02:54:13;;;;;;;4.70;3.55;;;17.80;99.90;;;;;;5000488;28;20104;-84
2022/06/30 02:56:39;;;;;;;4.32;3.92;;;17.70;99.90;;;;;;5001917;28;20102;-83
2022/06/30 02:59:05;;;;;;;5.38;4.15;;;17.70;99.90;;;;;;5000603;28;20057;-82
2022/06/30 03:01:30;;;;;;;4.22;3.88;;;17.70;99.90;;;;;;5015684;28;20034;-83
2022/06/30 03:03:56;;;;;;;3.67;3.40;;;17.70;99.90;;;;;;5019795;28;20033;-82
2022/06/30 03:06:22;;;;;;;4.85;4.38;;;17.70;99.90;;;;;;5018403;28;20022;-81
2022/06/30 03:08:47;;;;;;;4.32;3.97;;;17.70;99.90;;;;;;5018826;28;20022;-83
2022/06/30 03:11:16;;;;;;;4.35;3.95;;;17.70;99.90;;;;;;5020301;28;20026;-83
2022/06/30 03:13:45;;;;;;;3.78;3.47;;;17.80;99.90;;;;;;5003500;28;20065;-83
2022/06/30 03:16:14;;;;;;;4.30;3.88;;;17.80;99.90;;;;;;5019522;28;20022;-83
2022/06/30 03:18:40;;;;;;;4.18;3.88;;;17.70;99.90;;;;;;5021811;28;20050;-83
2022/06/30 03:21:07;;;;;;;3.90;3.53;;;17.70;99.90;;;;;;5021388;28;20089;-83
2022/06/30 03:23:32;;;;;;;3.60;3.30;;;17.70;99.90;;;;;;5002288;28;20034;-81
2022/06/30 03:25:58;;;;;;;5.03;3.88;;;17.70;99.90;;;;;;5020202;28;20030;-83
2022/06/30 03:28:24;;;;;;;3.95;3.65;;;17.70;99.90;;;;;;5021417;28;20038;-83
2022/06/30 03:30:49;;;;;;;4.55;4.07;;;17.70;99.90;;;;;;5021421;28;20077;-83
2022/06/30 03:33:16;;;;;;;3.72;3.40;;;17.70;99.90;;;;;;5019903;28;20034;-83
2022/06/30 03:35:42;;;;;;;4.45;4.05;;;17.70;99.90;;;;;;5020012;28;20076;-83
2022/06/30 03:38:08;;;;;;;4.25;3.88;;;17.70;99.90;;;;;;5019729;28;20057;-82
2022/06/30 03:40:34;;;;;;;4.32;4.00;;;17.80;99.90;;;;;;5019557;28;20034;-83
2022/06/30 03:43:01;;;;;;;4.47;4.13;;;17.80;99.90;;;;;;5018225;28;20073;-83
2022/06/30 03:45:27;;;;;;;4.07;3.67;;;17.80;99.90;;;;;;5025446;28;20045;-84
2022/06/30 03:47:53;;;;;;;5.47;3.83;;;17.80;99.90;;;;;;5036488;28;20030;-83
2022/06/30 03:50:19;;;;;;;4.60;4.20;;;17.80;99.90;;;;;;5021864;28;20080;-83
2022/06/30 03:52:45;;;;;;;5.30;3.78;;;17.70;99.90;;;;;;5022025;28;20037;-84
2022/06/30 03:55:11;;;;;;;4.10;3.80;;;17.80;99.90;;;;;;5022247;28;20037;-83
2022/06/30 03:57:37;;;;;;;4.43;3.92;;;17.80;99.90;;;;;;5025527;28;20072;-84
2022/06/30 04:00:05;;;;;;;5.10;3.85;;;17.80;99.90;;;;;;5006713;28;20030;-83
2022/06/30 04:02:32;;;;;;;4.68;4.28;;;17.80;99.90;;;;;;5024039;28;20092;-83
2022/06/30 04:04:58;;;;;;;5.35;4.03;;;17.80;99.90;;;;;;5024568;28;20028;-83
2022/06/30 04:07:23;;;;;;;4.97;3.90;;;17.90;99.90;;;;;;5024993;28;20026;-83
2022/06/30 04:09:50;;;;;;;6.78;3.60;;;17.90;99.90;;;;;;5023654;28;20032;-83
2022/06/30 04:12:15;;;;;;;4.75;4.18;;;17.90;99.90;;;;;;5004460;28;20065;-82
2022/06/30 04:14:41;;;;;;;4.38;3.97;;;17.90;99.90;;;;;;5020585;28;20030;-81
2022/06/30 04:17:07;;;;;;;4.40;3.70;;;18.00;99.90;;;;;;5021127;28;20080;-82
2022/06/30 04:19:33;;;;;;;4.00;3.60;;;18.00;99.90;;;;;;5021759;28;20056;-80
2022/06/30 04:21:58;;;;;;;4.15;3.78;;;18.10;99.90;;;;;;5021774;28;20022;-80
2022/06/30 04:24:24;;;;;;;4.40;4.00;;;18.10;99.90;;;;;;5003141;28;20039;-81
2022/06/30 04:26:50;;;;;;;3.88;3.50;;;18.10;99.90;;;;;;5021730;28;20417;-81
2022/06/30 04:29:15;;;;;;;4.45;4.03;;;18.20;99.90;;;;;;5021768;28;20030;-82
2022/06/30 04:34:26;;;;;;;4.40;4.00;;;18.20;99.90;;;;;;5024308;28;20383;-81
2022/06/30 04:36:51;;;;;;;5.03;4.18;;;18.30;99.90;;;;;;5021651;28;20033;-81
2022/06/30 04:39:17;;;;;;;5.32;3.63;;;18.50;99.90;;;;;;5020205;28;20156;-80
2022/06/30 04:41:43;;;;;;;4.40;3.83;;;18.60;99.90;;;;;;5021143;28;20044;-82
2022/06/30 04:44:08;;;;;;;4.88;3.92;;;18.70;99.90;;;;;;5020998;28;20026;-81
2022/06/30 04:46:34;;;;;;;5.68;3.22;;;18.70;99.90;;;;;;5023329;28;20026;-86
2022/06/30 04:48:59;;;;;;;3.70;3.40;;;18.70;99.90;;;;;;5031913;28;20138;-80
2022/06/30 04:51:25;;;;;;;3.63;3.33;;;18.80;99.90;;;;;;5033354;28;20041;-82
2022/06/30 04:53:51;;;;;;;4.93;4.50;;;18.80;99.90;;;;;;5033630;28;20037;-81
2022/06/30 04:56:17;;;;;;;3.95;3.15;;;18.90;99.90;;;;;;5016987;28;20041;-81
2022/06/30 04:58:44;;;;;;;5.18;3.65;;;19.00;99.90;;;;;;5033621;28;20021;-81
2022/06/30 05:01:11;;;;;;;6.07;3.03;;;19.10;99.90;;;;;;5033073;28;20041;-80
2022/06/30 05:03:37;;;;;;;6.05;3.83;;;19.10;99.90;;;;;;5015787;28;20054;-81
2022/06/30 05:06:04;;;;;;;3.25;3.00;;;19.20;99.90;;;;;;5032863;28;20029;-81
2022/06/30 05:08:32;;;;;;;4.30;3.30;;;19.30;99.90;;;;;;5034130;28;20014;-82
2022/06/30 05:10:57;;;;;;;3.85;3.40;;;19.70;99.90;;;;;;5034131;28;20041;-81
2022/06/30 05:13:23;;;;;;;5.47;3.08;;;21.70;99.90;;;;;;5033497;28;20038;-80
2022/06/30 05:15:49;;;;;;;3.22;2.30;;;24.40;94.70;;;;;;5033906;28;20022;-81
2022/06/30 05:18:15;;;;;;;2.58;2.30;;;27.20;86.10;;;;;;5034315;28;20044;-81
2022/06/30 05:20:41;;;;;;;2.50;2.30;;;29.60;74.90;;;;;;5034311;28;20060;-80
2022/06/30 05:23:08;;;;;;;2.20;1.88;;;31.20;65.90;;;;;;5033272;28;20017;-80
2022/06/30 05:28:21;;;;;;;1.90;1.80;;;33.30;56.90;;;;;;5032434;28;20048;-81
2022/06/30 05:30:47;;;;;;;2.60;2.00;;;34.20;54.90;;;;;;5031715;28;20101;-81
2022/06/30 05:33:14;;;;;;;2.33;2.13;;;34.90;52.50;;;;;;5012969;28;20049;-81
2022/06/30 05:35:40;;;;;;;2.15;2.05;;;35.30;50.90;;;;;;5014102;28;20037;-81
2022/06/30 05:38:06;;;;;;;2.63;2.42;;;35.60;50.10;;;;;;5031018;28;20026;-80
2022/06/30 05:40:32;;;;;;;3.80;1.83;;;36.00;49.10;;;;;;5030707;28;20275;-81
2022/06/30 05:42:58;;;;;;;2.35;1.88;;;36.60;48.10;;;;;;5027033;28;20014;-80
2022/06/30 05:45:23;;;;;;;2.35;2.13;;;37.10;47.00;;;;;;5019963;28;20101;-81
2022/06/30 05:47:53;;;;;;;1.60;1.60;;;37.70;46.50;;;;;;5027937;28;20041;-82
2022/06/30 05:50:20;;;;;;;2.10;1.90;;;38.10;45.10;;;;;;5011727;28;20048;-83
2022/06/30 05:52:46;;;;;;;2.65;1.80;;;38.50;44.90;;;;;;5021658;28;20077;-83
2022/06/30 05:55:12;;;;;;;2.70;1.77;;;38.70;43.90;;;;;;5022777;28;20025;-83
2022/06/30 05:57:52;;;;;;;4.32;2.00;;;39.00;43.60;;;;;;5028304;28;20501;-83
2022/06/30 06:00:19;;;;;;;2.25;2.03;;;38.90;43.60;;;;;;5019410;28;20069;-83
2022/06/30 06:02:45;;;;;;;2.08;1.98;;;39.20;43.00;;;;;;5006532;28;20018;-83
2022/06/30 06:05:11;;;;;;;2.10;1.80;;;39.20;42.50;;;;;;5024918;28;20022;-83
2022/06/30 06:07:37;;;;;;;3.15;1.98;;;39.30;42.60;;;;;;5029450;28;20033;-82
2022/06/30 06:10:03;;;;;;;6.05;2.95;;;39.40;42.30;;;;;;5031957;28;20049;-82
2022/06/30 06:12:29;;;;;;;2.13;1.98;;;39.40;42.40;;;;;;5014203;28;20116;-82
2022/06/30 06:14:55;;;;;;;2.13;2.03;;;39.50;42.10;;;;;;5030913;28;20030;-83
2022/06/30 06:17:21;;;;;;;2.72;1.83;;;39.60;42.20;;;;;;5031040;28;20030;-82
2022/06/30 06:19:46;;;;;;;2.55;2.45;;;39.50;41.80;;;;;;5030526;28;20072;-83
2022/06/30 06:22:12;;;;;;;1.98;1.88;;;39.80;41.90;;;;;;5031417;28;20026;-83
2022/06/30 06:24:38;;;;;;;1.85;1.75;;;40.10;41.40;;;;;;5031174;28;20026;-82
2022/06/30 06:27:04;;;;;;;2.17;1.75;;;40.20;40.80;;;;;;5031177;28;20033;-82
2022/06/30 06:29:29;;;;;;;1.88;1.77;;;40.20;40.80;;;;;;5029606;28;20116;-83
2022/06/30 06:31:55;;;;;;;2.92;2.03;;;39.80;41.00;;;;;;5010543;28;20025;-83
2022/06/30 06:34:21;;;;;;;3.15;2.42;;;39.80;41.00;;;;;;5028308;28;20022;-81
2022/06/30 06:36:47;;;;;;;2.03;1.83;;;39.80;41.00;;;;;;5028159;28;20486;-83
2022/06/30 06:39:13;;;;;;;2.92;2.22;;;40.00;41.10;;;;;;5009836;28;20049;-83
2022/06/30 06:41:38;;;;;;;3.00;2.30;;;40.00;41.30;;;;;;5027497;28;20057;-82
2022/06/30 06:44:04;;;;;;;2.85;2.30;;;39.50;40.90;;;;;;5027432;28;20026;-82
2022/06/30 06:46:30;;;;;;;4.88;2.38;;;38.60;41.40;;;;;;5029226;28;20032;-82
2022/06/30 06:49:00;;;;;;;3.45;2.83;;;38.20;42.40;;;;;;5028167;28;20026;-83
2022/06/30 06:51:27;;;;;;;2.20;2.03;;;38.70;41.90;;;;;;5026818;28;20525;-83
2022/06/30 06:53:52;;;;;;;2.90;2.58;;;38.90;41.80;;;;;;5025512;28;20087;-83
2022/06/30 06:56:18;;;;;;;2.53;2.33;;;39.10;41.80;;;;;;5025617;28;20398;-84
2022/06/30 06:58:44;;;;;;;2.88;2.60;;;39.40;41.50;;;;;;5024404;28;20053;-83
2022/06/30 07:01:10;;;;;;;3.55;2.42;;;39.50;41.20;;;;;;5026012;28;20375;-83
2022/06/30 07:03:37;;;;;;;3.28;2.60;;;39.60;41.50;;;;;;5025949;28;20057;-83
2022/06/30 07:06:03;;;;;;;2.13;2.03;;;39.50;41.30;;;;;;5026559;28;20033;-81
2022/06/30 07:08:29;;;;;;;3.78;2.70;;;39.10;41.40;;;;;;5026806;28;20073;-82
2022/06/30 07:10:56;;;;;;;3.80;2.50;;;38.70;42.20;;;;;;5028581;28;20033;-83
2022/06/30 07:13:23;;;;;;;2.53;2.33;;;38.70;42.40;;;;;;5031798;28;20189;-83
2022/06/30 07:15:49;;;;;;;3.47;2.53;;;38.60;42.20;;;;;;5035161;28;20062;-82
2022/06/30 07:18:14;;;;;;;4.13;2.05;;;38.60;42.50;;;;;;5035250;28;20117;-82
2022/06/30 07:20:40;;;;;;;4.57;2.10;;;38.50;42.20;;;;;;5032877;28;20030;-82
2022/06/30 07:23:06;;;;;;;2.58;1.95;;;38.40;41.90;;;;;;5031534;28;20033;-82
2022/06/30 07:25:31;;;;;;;2.47;2.25;;;36.40;42.70;;;;;;5029088;28;20022;-82
2022/06/30 07:27:57;;;;;;;2.90;2.30;;;33.60;46.40;;;;;;5024587;28;20053;-83
2022/06/30 07:30:24;;;;;;;4.45;2.83;;;31.10;50.20;;;;;;5026761;28;20030;-83
2022/06/30 07:32:49;;;;;;;5.97;3.72;;;29.10;54.20;;;;;;5031964;28;20033;-82
2022/06/30 07:35:15;;;;;;;2.70;2.50;;;27.80;57.20;;;;;;5030009;28;20017;-83
2022/06/30 07:37:41;;;;;;;5.50;3.28;;;26.90;59.60;;;;;;5029042;28;20542;-83
2022/06/30 07:40:08;;;;;;;4.05;2.33;;;26.20;61.50;;;;;;5032740;28;20049;-83
2022/06/30 07:42:43;;;;;;;3.65;2.63;;;25.70;62.80;;;;;;5039078;28;20091;-84
2022/06/30 07:45:10;;;;;;;3.65;2.55;;;25.30;64.50;;;;;;5033333;28;20010;-83
2022/06/30 07:47:39;;;;;;;4.93;2.70;;;25.00;65.90;;;;;;5033606;28;20033;-83
2022/06/30 07:50:06;;;;;;;4.00;2.92;;;24.90;66.80;;;;;;5032164;28;20029;-82
2022/06/30 07:52:33;;;;;;;3.03;2.72;;;24.80;67.00;;;;;;5031306;28;20032;-82
2022/06/30 07:54:59;;;;;;;6.30;2.90;;;24.80;67.90;;;;;;5032279;28;20018;-81
2022/06/30 07:57:27;;;;;;;4.00;2.40;;;24.80;68.20;;;;;;5032140;28;20116;-82
2022/06/30 07:59:53;;;;;;;3.70;2.50;;;24.80;68.80;;;;;;5014868;28;20034;-82
2022/06/30 08:02:19;;;;;;;2.65;2.40;;;24.80;69.30;;;;;;5032464;28;20395;-84
2022/06/30 08:04:45;;;;;;;3.00;2.78;;;24.80;69.30;;;;;;5032011;28;20018;-84
2022/06/30 08:07:11;;;;;;;3.20;2.75;;;24.80;69.30;;;;;;5016378;28;20030;-83
2022/06/30 08:09:37;;;;;;;5.10;2.92;;;24.90;69.30;;;;;;5034615;28;20037;-83
2022/06/30 08:12:03;;;;;;;10.50;3.65;;;25.00;69.70;;;;;;5017650;28;20018;-83
2022/06/30 08:14:29;;;;;;;6.50;3.33;;;25.00;69.40;;;;;;5034858;28;20026;-84
2022/06/30 08:16:55;;;;;;;5.22;3.15;;;24.90;69.50;;;;;;5033003;28;20030;-84
2022/06/30 08:19:21;;;;;;;5.93;3.60;;;25.00;70.20;;;;;;5036171;28;20061;-85
2022/06/30 08:21:47;;;;;;;7.70;3.15;;;25.10;69.70;;;;;;5017569;28;20030;-84
2022/06/30 08:24:14;;;;;;;7.05;3.33;;;25.30;69.10;;;;;;5034703;28;20014;-84
2022/06/30 08:26:40;;;;;;;14.27;3.60;;;25.20;68.50;;;;;;5033612;28;20125;-83
2022/06/30 08:29:08;;;;;;;16.27;4.38;;;25.20;68.90;;;;;;5034028;28;20022;-86
2022/06/30 08:31:35;;;;;;;2.92;2.60;;;25.10;69.90;;;;;;5034682;28;20072;-84
2022/06/30 08:34:02;;;;;;;8.77;3.20;;;25.20;69.30;;;;;;5016741;28;20045;-85
2022/06/30 08:36:27;;;;;;;10.57;3.65;;;25.30;69.60;;;;;;5032488;28;20080;-85
2022/06/30 08:38:53;;;;;;;8.82;3.42;;;25.30;68.20;;;;;;5029153;28;20026;-85
2022/06/30 08:44:04;;;;;;;6.75;2.80;;;25.50;67.90;;;;;;5030871;28;20033;-85
2022/06/30 08:46:33;;;;;;;3.65;3.10;;;25.60;68.30;;;;;;5025715;28;20022;-83
2022/06/30 08:48:58;;;;;;;3.50;2.70;;;25.70;68.20;;;;;;5027129;28;20022;-82
2022/06/30 08:51:27;;;;;;;3.95;3.03;;;25.80;68.10;;;;;;5036853;28;20029;-84
2022/06/30 08:53:57;;;;;;;7.90;3.65;;;26.00;68.20;;;;;;5038656;28;20013;-84
2022/06/30 08:56:24;;;;;;;6.53;2.75;;;26.20;67.10;;;;;;5039041;28;20037;-84
2022/06/30 08:58:51;;;;;;;6.45;3.00;;;26.30;65.70;;;;;;5037285;28;20045;-84
2022/06/30 09:01:18;;;;;;;3.20;2.60;;;26.20;63.80;;;;;;5038648;28;20072;-85
2022/06/30 09:03:44;;;;;;;5.07;3.33;;;26.20;65.40;;;;;;5038025;28;20053;-85
2022/06/30 09:06:10;;;;;;;6.28;3.17;;;26.10;64.90;;;;;;5037956;28;20113;-85
2022/06/30 09:08:36;;;;;;;6.28;3.05;;;26.20;64.70;;;;;;5039632;28;20014;-83
2022/06/30 09:11:02;;;;;;;7.97;3.40;;;26.30;64.80;;;;;;5023038;28;20057;-83
2022/06/30 09:13:45;;;;;;;5.80;3.50;;;26.40;64.60;;;;;;5039704;28;20029;-83
2022/06/30 09:16:12;;;;;;;3.90;3.03;;;26.40;63.60;;;;;;5021861;28;20106;-83
2022/06/30 09:18:38;;;;;;;5.53;2.85;;;26.40;63.90;;;;;;5038445;28;20033;-83
2022/06/30 09:21:15;;;;;;;5.40;3.28;;;26.40;62.60;;;;;;5038409;28;20042;-83
2022/06/30 09:23:48;;;;;;;4.57;3.15;;;26.30;63.50;;;;;;5036561;28;20009;-84
2022/06/30 09:26:23;;;;;;;7.60;3.30;;;26.40;64.80;;;;;;5024144;28;20033;-84
2022/06/30 09:28:54;;;;;;;3.10;2.40;;;26.70;65.10;;;;;;5022478;28;20482;-84
2022/06/30 09:31:38;;;;;;;8.85;3.67;;;26.90;64.10;;;;;;5023846;28;20053;-85
2022/06/30 09:34:16;;;;;;;7.80;3.38;;;27.00;63.50;;;;;;5023797;28;20037;-85
2022/06/30 09:36:42;;;;;;;8.35;3.05;;;27.10;63.60;;;;;;5022376;28;20097;-84
2022/06/30 09:39:16;;;;;;;5.72;2.92;;;27.20;62.40;;;;;;5030439;28;20026;-83
2022/06/30 09:41:44;;;;;;;3.50;3.00;;;27.20;61.50;;;;;;5031727;28;20022;-84
2022/06/30 09:44:15;;;;;;;5.18;3.17;;;27.10;61.30;;;;;;5022114;28;20041;-84
2022/06/30 09:47:00;;;;;;;;;;;27.20;61.70;;;;;;5023870;28;20042;-83
2022/06/30 09:49:34;;;;;;;5.03;3.13;;;27.30;61.90;;;;;;5022420;28;20342;-84
2022/06/30 09:52:03;;;;;;;6.13;3.10;;;27.60;60.50;;;;;;5024502;28;20030;-85
2022/06/30 09:54:32;;;;;;;3.72;3.15;;;27.70;60.20;;;;;;5022223;28;20045;-84
2022/06/30 09:57:04;;;;;;;6.63;3.17;;;27.70;60.70;;;;;;5020685;28;20030;-84
2022/06/30 09:59:30;;;;;;;5.75;2.60;;;27.70;61.20;;;;;;5019083;28;20090;-84
2022/06/30 10:01:56;;;;;;;4.55;3.30;;;27.80;60.50;;;;;;5018737;28;20041;-85
2022/06/30 10:04:22;;;;;;;8.20;3.22;;;28.00;60.00;;;;;;5021490;28;20022;-84
2022/06/30 10:06:47;;;;;;;3.50;2.83;;;28.00;59.40;;;;;;5020429;28;20115;-84
2022/06/30 10:09:18;;;;;;;4.47;2.88;;;27.90;58.40;;;;;;5024124;28;20132;-84
2022/06/30 10:11:47;;;;;;;4.68;3.33;;;27.80;58.90;;;;;;5010274;28;20400;-85
2022/06/30 10:14:16;;;;;;;5.50;3.08;;;27.90;58.80;;;;;;5021636;28;20829;-85
2022/06/30 10:16:43;;;;;;;4.25;2.85;;;28.10;58.40;;;;;;5021375;28;20446;-84
2022/06/30 10:19:10;;;;;;;5.60;3.00;;;28.40;58.20;;;;;;5021318;28;20029;-84
2022/06/30 10:21:38;;;;;;;13.10;4.15;;;28.50;57.60;;;;;;5017474;28;20049;-85
2022/06/30 10:24:05;;;;;;;5.68;3.08;;;28.40;58.20;;;;;;5004513;28;20023;-84
2022/06/30 10:29:19;;;;;;;6.43;2.75;;;28.50;56.70;;;;;;5021752;28;20064;-84
2022/06/30 10:32:37;;;;;;;6.50;2.80;;;28.60;55.80;;;;;;5020605;28;20026;-84
2022/06/30 10:35:32;;;;;;;3.47;2.63;;;28.70;56.60;;;;;;4984661;28;20527;-84
2022/06/30 10:38:21;;;;;;;2.92;2.55;;;28.90;57.10;;;;;;5022548;28;20040;-84
2022/06/30 10:41:11;;;;;;;4.53;2.85;;;29.00;56.80;;;;;;5021445;28;20034;-84
2022/06/30 10:44:05;;;;;;;3.22;2.50;;;29.10;56.40;;;;;;5020190;28;20105;-83
2022/06/30 10:46:32;;;;;;;5.85;3.03;;;29.20;55.80;;;;;;5019383;28;20112;-85
2022/06/30 10:48:58;;;;;;;4.47;2.90;;;29.20;54.90;;;;;;5001720;28;20116;-84
2022/06/30 10:51:26;;;;;;;5.30;2.78;;;29.20;54.30;;;;;;5002556;28;20041;-84
2022/06/30 10:53:57;;;;;;;8.90;2.78;;;29.10;54.70;;;;;;5018676;28;20041;-84
2022/06/30 10:56:57;;;;;;;3.85;2.17;;;29.20;54.70;;;;;;5020523;28;20045;-85
2022/06/30 10:59:36;;;;;;;8.43;3.40;;;29.20;55.80;;;;;;5018709;28;20030;-84
2022/06/30 11:02:08;;;;;;;8.27;3.17;;;29.40;55.00;;;;;;5004999;28;20022;-85
2022/06/30 11:04:35;;;;;;;3.33;2.58;;;29.70;54.20;;;;;;5016853;28;20084;-84
2022/06/30 11:07:06;;;;;;;3.60;2.35;;;30.00;54.20;;;;;;5024759;28;20425;-85
2022/06/30 11:09:44;;;;;;;6.93;3.03;;;30.20;53.20;;;;;;5030422;28;20530;-85
2022/06/30 11:12:14;;;;;;;5.57;2.85;;;30.30;53.40;;;;;;5024453;28;20021;-84
2022/06/30 11:14:53;;;;;;;6.20;2.95;;;30.10;53.40;;;;;;5019305;28;20382;-85
2022/06/30 11:17:21;;;;;;;6.47;3.58;;;30.10;53.50;;;;;;5023622;28;20057;-84
2022/06/30 11:19:48;;;;;;;4.88;2.80;;;30.00;53.80;;;;;;5028645;28;20021;-85
2022/06/30 11:22:16;;;;;;;7.63;2.40;;;29.90;54.10;;;;;;5030014;28;20115;-85
2022/06/30 11:24:45;;;;;;;3.25;2.40;;;30.00;53.80;;;;;;5025338;28;20068;-84
2022/06/30 11:27:17;;;;;;;3.45;2.33;;;30.10;52.70;;;;;;5021232;28;20033;-85
2022/06/30 11:29:45;;;;;;;4.85;3.03;;;30.40;51.70;;;;;;5020930;28;20379;-84
2022/06/30 11:32:11;;;;;;;4.35;2.83;;;30.50;52.50;;;;;;5028847;28;20541;-84
2022/06/30 11:34:40;;;;;;;4.22;2.88;;;30.50;53.60;;;;;;5029276;28;20049;-83
2022/06/30 11:37:06;;;;;;;4.35;2.70;;;30.60;53.60;;;;;;5034606;28;20070;-86
2022/06/30 11:39:33;;;;;;;4.60;3.38;;;30.70;53.70;;;;;;5010774;28;20030;-84
2022/06/30 11:42:01;;;;;;;5.43;2.72;;;30.60;52.80;;;;;;5019474;28;20058;-85
2022/06/30 11:44:38;;;;;;;6.57;2.60;;;30.40;53.60;;;;;;5017439;28;20125;-85
2022/06/30 11:47:17;;;;;;;7.28;3.00;;;30.20;53.50;;;;;;5002578;28;20198;-85
2022/06/30 11:50:08;;;;;;;3.22;2.40;;;30.20;53.10;;;;;;5018084;28;20499;-85
2022/06/30 11:52:41;;;;;;;3.07;2.57;;;30.00;54.00;;;;;;5017119;28;20068;-85
2022/06/30 11:55:14;;;;;;;8.82;2.80;;;30.20;54.30;;;;;;5018623;28;20109;-85
2022/06/30 11:57:42;;;;;;;9.82;2.80;;;30.40;52.50;;;;;;5020205;28;20042;-85
2022/06/30 12:00:11;;;;;;;4.45;2.47;;;30.50;51.50;;;;;;5021101;28;20045;-85
2022/06/30 12:02:39;;;;;;;5.00;3.22;;;30.70;51.80;;;;;;5020655;28;20018;-85
2022/06/30 12:05:10;;;;;;;6.18;2.70;;;31.00;52.00;;;;;;5001943;28;20034;-85
2022/06/30 12:07:36;;;;;;;;;;;31.30;52.40;;;;;;5002364;28;20076;-84
2022/06/30 12:10:04;;;;;;;6.20;2.83;;;31.30;52.40;;;;;;5019829;28;19905;-84
2022/06/30 12:12:32;;;;;;;9.65;3.22;;;31.20;52.80;;;;;;5003409;28;20033;-85
2022/06/30 12:15:00;;;;;;;5.70;3.00;;;31.10;52.80;;;;;;5019448;28;20475;-85
2022/06/30 12:17:31;;;;;;;4.78;2.60;;;31.10;52.90;;;;;;5020188;28;20034;-85
2022/06/30 12:19:57;;;;;;;8.85;3.03;;;31.00;52.60;;;;;;5044773;22;20034;-83
2022/06/30 12:22:23;;;;;;;6.95;2.60;;;31.00;53.30;;;;;;5017753;28;20057;-82
2022/06/30 12:24:51;;;;;;;5.93;3.10;;;31.00;52.80;;;;;;5026361;28;20081;-83
2022/06/30 12:27:50;;;;;;;5.05;2.95;;;30.80;54.10;;;;;;5025551;28;20046;-83
2022/06/30 12:30:35;;;;;;;8.52;3.75;;;30.80;53.70;;;;;;5007211;28;20062;-82
2022/06/30 12:33:04;;;;;;;9.35;3.38;;;30.80;53.40;;;;;;4989585;28;20034;-82
2022/06/30 12:35:32;;;;;;;5.45;2.45;;;30.80;53.30;;;;;;5007050;28;20018;-82
2022/06/30 12:38:20;;;;;;;7.60;3.10;;;30.80;53.20;;;;;;4990515;28;20036;-82
2022/06/30 12:40:47;;;;;;;3.63;2.75;;;30.70;52.90;;;;;;4989118;28;20027;-81
2022/06/30 12:43:15;;;;;;;4.05;2.70;;;30.70;53.90;;;;;;4988327;28;20088;-83
2022/06/30 12:45:46;;;;;;;3.25;2.67;;;30.80;54.10;;;;;;4991551;28;20037;-82
2022/06/30 12:48:51;;;;;;;6.20;2.70;;;31.30;53.40;;;;;;4989384;28;20507;-82
2022/06/30 12:51:32;;;;;;;6.88;2.80;;;31.50;52.70;;;;;;5002097;28;20042;-84
2022/06/30 12:54:04;;;;;;;3.90;2.42;;;31.30;52.80;;;;;;4986574;28;20041;-82
2022/06/30 12:56:30;;;;;;;6.95;3.55;;;31.20;53.70;;;;;;4985984;28;20034;-83
2022/06/30 12:59:13;;;;;;;8.27;2.92;;;31.30;53.40;;;;;;4984982;28;20035;-83
2022/06/30 13:01:42;;;;;;;9.63;2.70;;;31.50;53.00;;;;;;5011061;28;20030;-82
2022/06/30 13:04:27;;;;;;;4.95;2.90;;;31.50;52.80;;;;;;5013004;28;20023;-82
2022/06/30 13:06:54;;;;;;;4.93;2.97;;;31.50;52.30;;;;;;5006079;28;20025;-82